Time;durP1;ratioP1;P1;durP2;ratioP2;P2;SDS_P1;SDS_P2;PMS_P1;PMS_P2;Temp;Humidity;BMP_temperature;BMP_pressure;BME280_temperature;BME280_humidity;BME280_pressure;Samples;Min_cycle;Max_cycle;Signal;HPM_P1;HPM_P2
2022/07/19 00:01:10;;;;;;;7.95;3.63;;;22.90;53.10;;;;;;9180368;19;20081;-65
2022/07/19 00:04:15;;;;;;;7.80;3.17;;;22.80;53.30;;;;;;9182907;19;20010;-65
2022/07/19 00:07:20;;;;;;;7.88;3.40;;;22.80;53.30;;;;;;9178173;19;20022;-65
2022/07/19 00:10:25;;;;;;;9.65;3.50;;;22.70;53.50;;;;;;9180518;19;20598;-66
2022/07/19 00:13:30;;;;;;;8.75;3.05;;;22.70;53.60;;;;;;9182817;19;20104;-65
2022/07/19 00:16:38;;;;;;;5.93;2.97;;;22.60;53.60;;;;;;9180686;19;20014;-66
2022/07/19 00:19:43;;;;;;;9.55;3.40;;;22.60;53.90;;;;;;9182974;19;20573;-66
2022/07/19 00:22:51;;;;;;;6.72;3.40;;;22.50;53.80;;;;;;9180592;19;20090;-66
2022/07/19 00:25:56;;;;;;;5.95;3.60;;;22.50;54.00;;;;;;9182769;19;20353;-65
2022/07/19 00:29:02;;;;;;;7.50;3.60;;;22.50;54.10;;;;;;9182378;19;20022;-64
2022/07/19 00:32:10;;;;;;;6.57;3.60;;;22.40;54.20;;;;;;9180190;19;20014;-65
2022/07/19 00:35:15;;;;;;;10.20;3.63;;;22.30;54.30;;;;;;9181576;19;20025;-66
2022/07/19 00:38:21;;;;;;;6.82;3.40;;;22.30;54.30;;;;;;9180953;19;20015;-66
2022/07/19 00:41:26;;;;;;;6.90;3.78;;;22.30;54.40;;;;;;9181472;19;20021;-65
2022/07/19 00:44:32;;;;;;;5.15;3.35;;;22.20;54.50;;;;;;9181881;19;20026;-65
2022/07/19 00:47:40;;;;;;;7.20;3.35;;;22.20;54.60;;;;;;9179756;19;20022;-65
2022/07/19 00:50:45;;;;;;;5.70;3.58;;;22.20;54.80;;;;;;9181062;19;20029;-64
2022/07/19 00:53:51;;;;;;;7.45;3.65;;;22.10;54.80;;;;;;9181720;19;20007;-64
2022/07/19 00:56:57;;;;;;;6.35;3.80;;;22.10;54.90;;;;;;9181666;19;20539;-64
2022/07/19 01:00:02;;;;;;;5.10;3.58;;;22.00;54.90;;;;;;9179744;19;20011;-64
2022/07/19 01:03:11;;;;;;;8.07;3.97;;;22.00;55.00;;;;;;9178294;19;20135;-66
2022/07/19 01:06:17;;;;;;;5.95;3.55;;;21.90;55.10;;;;;;9173217;19;20018;-66
2022/07/19 01:09:22;;;;;;;7.28;3.85;;;21.90;55.20;;;;;;9179143;19;20033;-65
2022/07/19 01:12:28;;;;;;;10.52;3.55;;;21.90;55.30;;;;;;9180648;19;20871;-66
2022/07/19 01:15:33;;;;;;;10.63;3.67;;;21.80;55.30;;;;;;9178182;19;20022;-64
2022/07/19 01:18:40;;;;;;;9.07;3.83;;;21.80;55.50;;;;;;9179092;19;20447;-64
2022/07/19 01:21:48;;;;;;;13.07;4.22;;;21.80;55.70;;;;;;9178438;19;20055;-65
2022/07/19 01:24:53;;;;;;;9.68;4.25;;;21.70;55.70;;;;;;9180836;19;20036;-64
2022/07/19 01:27:58;;;;;;;7.50;3.83;;;21.70;55.70;;;;;;9178929;19;20014;-66
2022/07/19 01:31:03;;;;;;;10.60;4.15;;;21.60;55.70;;;;;;9180311;19;20026;-65
2022/07/19 01:34:08;;;;;;;8.52;4.20;;;21.60;55.90;;;;;;9178029;19;20026;-65
2022/07/19 01:37:16;;;;;;;9.40;4.25;;;21.60;55.90;;;;;;9179937;19;20015;-65
2022/07/19 01:40:21;;;;;;;7.93;4.03;;;21.60;56.10;;;;;;9179701;19;20010;-65
2022/07/19 01:43:26;;;;;;;8.05;3.58;;;21.50;56.10;;;;;;9187940;19;20014;-66
2022/07/19 01:46:32;;;;;;;10.80;4.20;;;21.50;56.20;;;;;;9188420;19;20015;-64
2022/07/19 01:49:37;;;;;;;7.35;4.00;;;21.50;56.20;;;;;;9186969;19;20034;-65
2022/07/19 01:52:46;;;;;;;6.07;3.75;;;21.40;56.20;;;;;;9188655;19;20547;-66
2022/07/19 01:55:54;;;;;;;9.43;4.30;;;21.30;56.40;;;;;;9187456;19;20018;-65
2022/07/19 01:58:59;;;;;;;11.27;4.22;;;21.40;56.40;;;;;;9187303;19;20460;-64
2022/07/19 02:02:05;;;;;;;11.98;4.47;;;21.30;56.50;;;;;;9185065;19;20018;-65
2022/07/19 02:05:10;;;;;;;8.15;4.00;;;21.30;56.50;;;;;;9180272;19;20026;-65
2022/07/19 02:08:18;;;;;;;7.15;4.07;;;21.20;56.60;;;;;;9186503;19;20650;-65
2022/07/19 02:11:39;;;;;;;8.98;4.10;;;21.20;56.70;;;;;;9186697;19;20026;-65
2022/07/19 02:14:43;;;;;;;13.00;4.70;;;21.20;56.80;;;;;;9187678;19;20026;-65
2022/07/19 02:17:48;;;;;;;7.88;4.10;;;21.10;56.80;;;;;;9186789;19;20357;-66
2022/07/19 02:20:54;;;;;;;11.55;4.53;;;21.10;56.90;;;;;;9187806;19;20022;-64
2022/07/19 02:24:01;;;;;;;7.38;4.82;;;21.00;56.90;;;;;;9188456;19;20662;-64
2022/07/19 02:27:06;;;;;;;8.68;4.28;;;21.00;57.10;;;;;;9186644;19;20014;-65
2022/07/19 02:30:13;;;;;;;7.88;4.80;;;20.90;57.10;;;;;;9186764;19;20014;-64
2022/07/19 02:33:18;;;;;;;15.40;4.80;;;20.90;57.10;;;;;;9187722;19;20118;-66
2022/07/19 02:36:23;;;;;;;6.93;4.80;;;20.90;57.20;;;;;;9186426;19;20029;-66
2022/07/19 02:39:31;;;;;;;8.20;4.03;;;20.90;57.30;;;;;;9184500;19;20018;-65
2022/07/19 02:42:36;;;;;;;9.63;4.32;;;20.80;57.30;;;;;;9186598;19;20375;-65
2022/07/19 02:45:41;;;;;;;7.40;4.50;;;20.80;57.30;;;;;;9184233;19;20029;-66
2022/07/19 02:48:46;;;;;;;8.15;4.85;;;20.80;57.40;;;;;;9186826;19;20018;-64
2022/07/19 02:51:56;;;;;;;8.15;4.47;;;20.80;57.50;;;;;;9184817;19;20025;-66
2022/07/19 02:55:04;;;;;;;8.70;4.53;;;20.70;57.50;;;;;;9185157;19;20046;-66
2022/07/19 02:58:09;;;;;;;10.20;4.93;;;20.70;57.70;;;;;;9181918;19;20021;-65
2022/07/19 03:01:15;;;;;;;7.35;4.40;;;20.70;57.60;;;;;;9184113;19;20067;-64
2022/07/19 03:04:21;;;;;;;10.55;4.72;;;20.60;57.70;;;;;;9184949;19;20045;-66
2022/07/19 03:07:26;;;;;;;9.18;5.22;;;20.60;57.80;;;;;;9181102;19;20014;-64
2022/07/19 03:10:34;;;;;;;15.93;5.45;;;20.60;57.80;;;;;;9185095;19;20476;-65
2022/07/19 03:13:39;;;;;;;9.80;4.38;;;20.60;57.90;;;;;;9185704;19;20361;-66
2022/07/19 03:16:44;;;;;;;9.73;5.07;;;20.50;57.90;;;;;;9184477;19;20014;-66
2022/07/19 03:19:49;;;;;;;13.68;4.95;;;20.50;57.90;;;;;;9183192;19;20015;-65
2022/07/19 03:22:54;;;;;;;11.52;5.03;;;20.50;58.00;;;;;;9183510;19;20327;-65
2022/07/19 03:26:02;;;;;;;10.20;4.82;;;20.40;58.00;;;;;;9185195;19;20022;-66
2022/07/19 03:29:07;;;;;;;7.97;5.20;;;20.40;58.20;;;;;;9184688;19;20017;-65
2022/07/19 03:32:12;;;;;;;15.82;5.22;;;20.30;58.10;;;;;;9183989;19;20499;-64
2022/07/19 03:35:17;;;;;;;9.05;4.95;;;20.30;58.20;;;;;;9185368;19;20479;-65
2022/07/19 03:38:22;;;;;;;13.93;5.25;;;20.30;58.20;;;;;;9182674;19;20033;-64
2022/07/19 03:41:30;;;;;;;7.95;4.88;;;20.30;58.30;;;;;;9183610;19;20025;-65
2022/07/19 03:44:36;;;;;;;7.72;4.93;;;20.30;58.40;;;;;;9182630;19;20022;-64
2022/07/19 03:47:41;;;;;;;10.25;5.32;;;20.20;58.40;;;;;;9182321;19;20030;-65
2022/07/19 03:50:47;;;;;;;11.30;5.57;;;20.20;58.40;;;;;;9183579;19;20023;-65
2022/07/19 03:53:52;;;;;;;8.57;5.32;;;20.20;58.40;;;;;;9182112;19;20018;-64
2022/07/19 03:56:59;;;;;;;11.05;5.57;;;20.20;58.50;;;;;;9182050;19;20021;-64
2022/07/19 04:00:06;;;;;;;7.65;4.82;;;20.10;58.60;;;;;;9180751;19;20007;-65
2022/07/19 04:03:15;;;;;;;9.88;5.82;;;20.10;58.60;;;;;;9182202;19;20035;-65
2022/07/19 04:06:20;;;;;;;10.45;5.85;;;20.10;58.60;;;;;;9179665;19;20018;-64
2022/07/19 04:09:25;;;;;;;8.95;5.63;;;20.10;58.70;;;;;;9182832;19;20015;-65
2022/07/19 04:12:33;;;;;;;10.85;5.45;;;20.00;59.30;;;;;;9183258;19;20037;-64
2022/07/19 04:15:38;;;;;;;13.07;6.05;;;20.00;58.80;;;;;;9181973;19;20037;-65
2022/07/19 04:18:50;;;;;;;11.05;6.05;;;20.00;58.80;;;;;;9182636;19;20026;-66
2022/07/19 04:21:55;;;;;;;10.48;5.88;;;20.00;58.90;;;;;;9181486;19;20046;-64
2022/07/19 04:25:01;;;;;;;10.80;6.13;;;20.00;58.90;;;;;;9182839;19;20011;-65
2022/07/19 04:28:09;;;;;;;6.47;4.75;;;20.00;59.00;;;;;;9180748;19;20014;-65
2022/07/19 04:31:14;;;;;;;12.48;5.65;;;20.00;59.00;;;;;;9182898;19;20015;-65
2022/07/19 04:34:25;;;;;;;11.02;5.70;;;19.90;59.00;;;;;;9182452;19;20098;-65
2022/07/19 04:37:30;;;;;;;11.65;5.47;;;19.90;59.00;;;;;;9180278;19;20022;-64
2022/07/19 04:40:35;;;;;;;12.52;5.70;;;19.90;59.10;;;;;;9179759;19;20014;-64
2022/07/19 04:43:43;;;;;;;16.20;5.38;;;19.90;59.10;;;;;;9182490;19;20019;-64
2022/07/19 04:46:48;;;;;;;9.70;5.47;;;19.90;59.20;;;;;;9182339;19;20011;-65
2022/07/19 04:49:53;;;;;;;16.23;5.43;;;20.00;59.20;;;;;;9180285;19;20015;-65
2022/07/19 04:52:58;;;;;;;12.30;4.82;;;20.00;59.20;;;;;;9181383;19;20010;-64
2022/07/19 04:56:03;;;;;;;11.30;5.25;;;19.90;59.20;;;;;;9182071;19;20015;-64
2022/07/19 04:59:11;;;;;;;10.35;5.35;;;20.00;59.30;;;;;;9181212;19;20333;-65
2022/07/19 05:02:16;;;;;;;9.38;5.10;;;20.00;59.40;;;;;;9180896;19;20356;-64
2022/07/19 05:05:21;;;;;;;10.63;5.65;;;20.00;59.40;;;;;;9173370;19;20030;-65
2022/07/19 05:08:26;;;;;;;10.32;5.50;;;20.00;59.40;;;;;;9180472;19;20421;-65
2022/07/19 05:11:31;;;;;;;11.02;5.72;;;20.00;59.40;;;;;;9179354;19;20021;-64
2022/07/19 05:14:39;;;;;;;9.52;5.03;;;20.00;59.40;;;;;;9179055;19;20020;-66
2022/07/19 05:17:44;;;;;;;15.18;5.90;;;20.10;59.50;;;;;;9178074;19;20025;-66
2022/07/19 05:20:49;;;;;;;10.45;5.70;;;20.10;59.50;;;;;;9177257;19;20029;-64
2022/07/19 05:23:54;;;;;;;12.77;5.70;;;20.10;59.40;;;;;;9179991;19;20015;-64
2022/07/19 05:27:00;;;;;;;10.65;5.38;;;20.10;59.50;;;;;;9180336;19;20010;-64
2022/07/19 05:30:08;;;;;;;13.02;5.63;;;20.20;59.50;;;;;;9177572;19;20026;-66
2022/07/19 05:33:15;;;;;;;14.75;5.25;;;20.20;59.60;;;;;;9171425;19;20052;-64
2022/07/19 05:36:20;;;;;;;10.07;5.38;;;20.20;59.50;;;;;;9173898;19;20007;-65
2022/07/19 05:39:25;;;;;;;12.85;5.93;;;20.30;59.50;;;;;;9174309;19;20479;-65
2022/07/19 05:42:30;;;;;;;12.38;5.38;;;20.30;59.50;;;;;;9177234;19;20015;-65
2022/07/19 05:45:38;;;;;;;10.18;5.32;;;20.40;59.60;;;;;;9176736;19;20022;-65
2022/07/19 05:48:43;;;;;;;9.88;5.30;;;20.50;59.80;;;;;;9177900;19;20105;-63
2022/07/19 05:51:48;;;;;;;11.82;5.00;;;20.60;59.70;;;;;;9179549;19;20487;-63
2022/07/19 05:54:53;;;;;;;15.45;5.82;;;20.70;59.70;;;;;;9177598;19;20476;-65
2022/07/19 05:57:58;;;;;;;10.70;4.85;;;20.90;59.70;;;;;;9176472;19;20022;-64
2022/07/19 06:01:22;;;;;;;10.05;4.85;;;21.10;59.80;;;;;;9175280;19;20014;-63
2022/07/19 06:04:27;;;;;;;;;;;21.20;59.70;;;;;;9176329;19;20480;-64
2022/07/19 06:07:32;;;;;;;11.35;5.05;;;21.50;59.40;;;;;;9174969;19;19919;-62
2022/07/19 06:10:37;;;;;;;13.77;4.75;;;21.60;59.30;;;;;;9177737;19;20015;-63
2022/07/19 06:13:42;;;;;;;9.90;5.03;;;21.80;59.20;;;;;;9170957;19;20372;-64
2022/07/19 06:16:50;;;;;;;21.52;6.15;;;22.10;59.10;;;;;;9172755;19;20014;-63
2022/07/19 06:19:55;;;;;;;9.30;5.38;;;22.30;59.00;;;;;;9167440;19;20019;-63
2022/07/19 06:23:00;;;;;;;13.25;5.22;;;22.50;58.80;;;;;;9175884;19;20014;-64
2022/07/19 06:26:07;;;;;;;8.15;4.35;;;22.70;58.70;;;;;;9171257;19;20071;-62
2022/07/19 06:29:13;;;;;;;11.57;4.78;;;22.90;58.60;;;;;;9180731;19;20134;-62
2022/07/19 06:32:20;;;;;;;9.32;4.68;;;23.20;58.50;;;;;;9173855;19;20507;-62
2022/07/19 06:35:25;;;;;;;12.50;4.75;;;23.40;58.40;;;;;;9179124;19;20011;-64
2022/07/19 06:38:30;;;;;;;9.20;4.30;;;23.60;58.20;;;;;;9178879;19;20033;-64
2022/07/19 06:41:35;;;;;;;16.45;4.55;;;23.80;58.00;;;;;;9182980;19;20019;-64
2022/07/19 06:44:42;;;;;;;16.63;4.45;;;24.10;57.80;;;;;;9184992;19;20424;-64
2022/07/19 06:47:50;;;;;;;9.38;4.25;;;24.30;57.60;;;;;;9187376;19;20030;-63
2022/07/19 06:50:55;;;;;;;13.30;4.63;;;24.50;57.50;;;;;;9185985;19;20516;-63
2022/07/19 06:54:00;;;;;;;15.68;4.22;;;24.80;57.40;;;;;;9185429;19;20265;-64
2022/07/19 06:57:06;;;;;;;10.70;4.53;;;25.00;57.10;;;;;;9184580;19;20015;-64
2022/07/19 07:00:13;;;;;;;9.55;4.38;;;25.20;56.90;;;;;;9186195;19;20021;-64
2022/07/19 07:03:23;;;;;;;9.65;4.10;;;25.40;56.80;;;;;;9184095;19;20018;-63
2022/07/19 07:06:28;;;;;;;7.95;3.92;;;25.60;56.50;;;;;;9180363;19;20025;-63
2022/07/19 07:09:33;;;;;;;10.27;4.18;;;25.90;56.50;;;;;;9183897;19;20022;-66
2022/07/19 07:12:39;;;;;;;9.68;4.22;;;26.10;56.40;;;;;;9185462;19;20021;-71
2022/07/19 07:15:45;;;;;;;7.28;3.78;;;26.30;56.10;;;;;;9185703;19;20018;-66
2022/07/19 07:18:53;;;;;;;9.82;3.45;;;26.60;56.00;;;;;;9185588;19;20349;-64
2022/07/19 07:22:00;;;;;;;14.85;4.15;;;26.80;55.80;;;;;;9182600;19;20026;-63
2022/07/19 07:25:07;;;;;;;6.68;3.30;;;27.00;55.60;;;;;;9183697;19;20014;-64
2022/07/19 07:28:13;;;;;;;9.05;3.50;;;27.20;55.40;;;;;;9184889;19;20086;-64
2022/07/19 07:31:18;;;;;;;7.60;3.83;;;27.50;55.50;;;;;;9184165;19;20014;-65
2022/07/19 07:34:25;;;;;;;9.98;3.30;;;27.60;55.20;;;;;;9183865;19;20010;-65
2022/07/19 07:37:30;;;;;;;8.27;3.67;;;27.90;55.10;;;;;;9183569;19;20026;-65
2022/07/19 07:40:36;;;;;;;4.70;2.72;;;28.20;55.00;;;;;;9179806;19;20010;-65
2022/07/19 07:43:41;;;;;;;9.40;2.67;;;28.40;54.70;;;;;;9183550;19;20026;-65
2022/07/19 07:46:46;;;;;;;8.07;3.30;;;28.70;54.60;;;;;;9182646;19;20025;-66
2022/07/19 07:49:53;;;;;;;10.85;3.00;;;28.90;54.30;;;;;;9181919;19;20014;-66
2022/07/19 07:52:58;;;;;;;5.13;2.72;;;29.10;54.00;;;;;;9183289;19;20031;-65
2022/07/19 07:56:03;;;;;;;7.72;2.75;;;29.30;53.80;;;;;;9180223;19;20364;-66
2022/07/19 07:59:14;;;;;;;10.05;2.35;;;29.60;53.60;;;;;;9182503;19;20360;-67
2022/07/19 08:02:19;;;;;;;3.25;1.83;;;29.80;53.50;;;;;;9179584;19;20022;-67
2022/07/19 08:05:27;;;;;;;6.70;1.88;;;30.00;53.20;;;;;;9177305;19;20019;-66
2022/07/19 08:08:32;;;;;;;6.07;2.60;;;30.20;52.70;;;;;;9181713;19;20029;-66
2022/07/19 08:11:37;;;;;;;8.52;2.33;;;30.40;52.50;;;;;;9183056;19;20022;-66
2022/07/19 08:14:42;;;;;;;11.75;2.40;;;30.60;52.30;;;;;;9183129;19;20028;-65
2022/07/19 08:17:47;;;;;;;7.20;1.67;;;30.90;51.90;;;;;;9181817;19;20025;-66
2022/07/19 08:20:55;;;;;;;8.70;1.95;;;31.00;51.50;;;;;;9181651;19;20018;-66
2022/07/19 08:24:00;;;;;;;9.93;1.92;;;31.30;51.20;;;;;;9180755;19;20026;-66
2022/07/19 08:27:05;;;;;;;11.27;1.65;;;31.40;50.90;;;;;;9179883;19;20030;-67
2022/07/19 08:30:12;;;;;;;6.68;1.80;;;31.60;50.50;;;;;;9182954;19;20110;-65
2022/07/19 08:33:17;;;;;;;8.68;2.35;;;31.80;50.10;;;;;;9181042;19;20022;-66
2022/07/19 08:36:24;;;;;;;5.53;1.58;;;32.00;49.90;;;;;;9177831;19;20018;-66
2022/07/19 08:39:29;;;;;;;7.63;1.77;;;32.10;49.40;;;;;;9182178;19;20029;-65
2022/07/19 08:42:35;;;;;;;5.25;1.90;;;32.30;49.30;;;;;;9180508;19;20018;-66
2022/07/19 08:45:41;;;;;;;4.93;1.90;;;32.50;48.90;;;;;;9181484;19;20017;-66
2022/07/19 08:48:48;;;;;;;12.65;2.13;;;32.70;48.80;;;;;;9179106;19;20479;-65
2022/07/19 08:51:56;;;;;;;12.50;2.33;;;32.80;48.30;;;;;;9181104;19;20022;-67
2022/07/19 08:55:01;;;;;;;6.30;2.22;;;33.00;48.10;;;;;;9180012;19;20014;-68
2022/07/19 08:58:06;;;;;;;10.00;1.65;;;33.20;48.00;;;;;;9179931;19;20010;-66
2022/07/19 09:01:11;;;;;;;5.55;1.73;;;33.40;47.70;;;;;;9180538;19;20015;-66
2022/07/19 09:04:19;;;;;;;14.13;2.30;;;33.60;47.50;;;;;;9180733;19;20475;-66
2022/07/19 09:07:27;;;;;;;13.25;1.60;;;33.80;47.30;;;;;;9175398;19;20021;-66
2022/07/19 09:10:33;;;;;;;2.83;1.45;;;33.90;46.80;;;;;;9180947;19;20019;-66
2022/07/19 09:13:38;;;;;;;9.02;1.70;;;34.10;46.80;;;;;;9181195;19;20021;-65
2022/07/19 09:17:01;;;;;;;4.07;1.63;;;34.30;46.50;;;;;;9180429;19;20014;-66
2022/07/19 09:20:09;;;;;;;5.82;1.65;;;34.50;46.00;;;;;;9178114;19;20375;-67
2022/07/19 09:23:17;;;;;;;10.48;2.20;;;34.70;46.10;;;;;;9176947;19;20010;-68
2022/07/19 09:26:22;;;;;;;3.20;1.40;;;34.80;46.30;;;;;;9180514;19;20011;-66
2022/07/19 09:29:28;;;;;;;4.78;1.60;;;34.90;45.40;;;;;;9178253;19;20014;-66
2022/07/19 09:32:33;;;;;;;6.63;1.70;;;35.10;45.20;;;;;;9178106;19;20014;-66
2022/07/19 09:35:43;;;;;;;5.05;1.75;;;35.20;45.00;;;;;;9179823;19;20375;-66
2022/07/19 09:38:54;;;;;;;5.88;1.52;;;35.30;44.50;;;;;;9180002;19;20019;-67
2022/07/19 09:42:02;;;;;;;5.60;1.52;;;35.50;44.30;;;;;;9179033;19;20018;-70
2022/07/19 09:45:11;;;;;;;4.63;1.73;;;35.60;44.20;;;;;;9179949;19;20334;-66
2022/07/19 09:48:16;;;;;;;3.83;1.38;;;35.80;43.60;;;;;;9178198;19;20372;-67
2022/07/19 09:51:22;;;;;;;4.35;1.15;;;35.90;43.50;;;;;;9179046;19;20082;-67
2022/07/19 09:54:32;;;;;;;7.53;1.42;;;35.90;43.20;;;;;;9179427;19;20034;-67
2022/07/19 09:57:39;;;;;;;4.95;1.77;;;36.10;43.00;;;;;;9179447;19;20523;-68
2022/07/19 10:00:45;;;;;;;4.28;1.33;;;36.20;42.80;;;;;;9178945;19;20086;-67
2022/07/19 10:03:50;;;;;;;8.85;1.33;;;36.30;42.60;;;;;;9182923;19;20026;-67
2022/07/19 10:06:57;;;;;;;7.43;1.60;;;36.40;42.20;;;;;;9184013;19;20007;-67
2022/07/19 10:10:07;;;;;;;1.77;1.17;;;36.50;41.90;;;;;;9186574;19;20025;-66
2022/07/19 10:13:12;;;;;;;2.67;1.20;;;36.60;41.60;;;;;;9187923;19;20030;-67
2022/07/19 10:16:23;;;;;;;5.50;1.60;;;36.70;41.70;;;;;;9186130;19;20025;-67
2022/07/19 10:19:37;;;;;;;12.35;1.65;;;36.80;41.30;;;;;;9185701;19;20025;-67
2022/07/19 10:22:42;;;;;;;6.93;2.53;;;36.90;41.00;;;;;;9186118;19;20015;-67
2022/07/19 10:25:50;;;;;;;12.68;2.33;;;37.00;41.00;;;;;;9187524;19;20956;-67
2022/07/19 10:29:09;;;;;;;9.45;1.92;;;37.10;40.60;;;;;;9183284;19;20025;-67
2022/07/19 10:32:16;;;;;;;4.07;1.92;;;37.20;40.20;;;;;;9185763;19;20029;-68
2022/07/19 10:35:23;;;;;;;2.85;1.45;;;37.30;40.20;;;;;;9185940;19;20018;-68
2022/07/19 10:38:28;;;;;;;3.30;1.45;;;37.30;40.00;;;;;;9186491;19;20027;-67
2022/07/19 10:41:35;;;;;;;4.13;1.30;;;37.40;39.90;;;;;;9184989;19;20019;-67
2022/07/19 10:45:19;;;;;;;8.00;1.50;;;37.50;39.60;;;;;;9184804;19;20011;-68
2022/07/19 10:48:38;;;;;;;9.55;1.52;;;37.60;39.20;;;;;;9184142;19;20007;-67
2022/07/19 10:51:46;;;;;;;5.03;1.38;;;37.70;39.10;;;;;;9184330;19;20022;-69
2022/07/19 10:55:27;;;;;;;4.85;1.58;;;37.70;39.20;;;;;;9186971;19;20341;-69
2022/07/19 10:58:49;;;;;;;6.18;1.40;;;37.80;38.80;;;;;;9186880;19;20388;-68
2022/07/19 11:02:00;;;;;;;1.75;1.48;;;38.00;38.80;;;;;;9184491;19;20329;-69
2022/07/19 11:05:27;;;;;;;2.78;1.38;;;38.00;38.70;;;;;;9179735;19;20018;-67
2022/07/19 11:08:36;;;;;;;6.70;1.52;;;38.20;38.70;;;;;;9185478;19;20033;-67
2022/07/19 11:11:41;;;;;;;7.68;1.40;;;38.30;38.20;;;;;;9183911;19;20022;-68
2022/07/19 11:14:48;;;;;;;7.18;1.50;;;38.30;38.10;;;;;;9182686;19;20022;-68
2022/07/19 11:18:13;;;;;;;5.72;1.20;;;38.40;37.80;;;;;;9183529;19;20387;-68
2022/07/19 11:21:19;;;;;;;5.15;1.23;;;38.50;37.80;;;;;;9185123;19;20022;-68
2022/07/19 11:24:24;;;;;;;6.13;1.40;;;38.50;37.50;;;;;;9182308;19;20019;-68
2022/07/19 11:27:30;;;;;;;2.30;1.20;;;38.50;37.40;;;;;;9182949;19;20015;-68
2022/07/19 11:30:38;;;;;;;2.83;1.50;;;38.60;37.20;;;;;;9183551;19;20021;-67
2022/07/19 11:33:43;;;;;;;7.05;1.52;;;38.70;37.00;;;;;;9184124;19;20018;-68
2022/07/19 11:36:59;;;;;;;4.95;1.58;;;38.70;36.90;;;;;;9184520;19;20081;-67
2022/07/19 11:40:05;;;;;;;4.20;1.45;;;38.80;36.50;;;;;;9184227;19;20015;-69
2022/07/19 11:43:10;;;;;;;7.90;1.58;;;38.90;36.70;;;;;;9181803;19;20025;-69
2022/07/19 11:46:23;;;;;;;8.32;1.70;;;38.90;36.40;;;;;;9184081;19;20488;-68
2022/07/19 11:49:40;;;;;;;5.50;1.63;;;39.00;36.10;;;;;;9181855;19;20011;-68
2022/07/19 11:52:47;;;;;;;5.28;1.55;;;39.00;36.10;;;;;;9184321;19;20015;-68
2022/07/19 11:55:52;;;;;;;2.03;1.27;;;39.00;35.90;;;;;;9182127;19;20022;-69
2022/07/19 11:59:00;;;;;;;9.18;1.50;;;39.10;35.80;;;;;;9182888;19;20014;-68
2022/07/19 12:02:08;;;;;;;3.65;1.48;;;39.10;35.60;;;;;;9184044;19;20017;-68
2022/07/19 12:05:14;;;;;;;5.70;1.30;;;39.10;35.30;;;;;;9177578;19;20021;-68
2022/07/19 12:08:19;;;;;;;4.10;1.52;;;39.30;35.40;;;;;;9182992;19;20468;-67
2022/07/19 12:11:27;;;;;;;7.53;1.60;;;39.30;35.30;;;;;;9182363;19;20020;-68
2022/07/19 12:14:35;;;;;;;9.80;1.63;;;39.40;35.10;;;;;;9183347;19;20441;-68
2022/07/19 12:17:56;;;;;;;1.67;1.13;;;39.50;35.00;;;;;;9180311;19;20029;-68
2022/07/19 12:21:17;;;;;;;3.17;1.38;;;39.50;34.90;;;;;;9178598;19;20019;-68
2022/07/19 12:24:24;;;;;;;5.32;1.27;;;39.60;34.60;;;;;;9179739;19;20389;-69
2022/07/19 12:27:29;;;;;;;3.40;1.40;;;39.60;34.70;;;;;;9180130;19;20040;-68
2022/07/19 12:30:34;;;;;;;7.57;1.25;;;39.50;34.50;;;;;;9180896;19;20683;-67
2022/07/19 12:33:42;;;;;;;3.75;1.52;;;39.60;34.50;;;;;;9181845;19;20018;-68
2022/07/19 12:36:48;;;;;;;6.82;1.58;;;39.60;34.20;;;;;;9180330;19;20015;-67
2022/07/19 12:40:02;;;;;;;2.08;1.00;;;39.60;34.20;;;;;;9181798;19;20021;-67
2022/07/19 12:43:09;;;;;;;3.70;1.30;;;39.60;34.00;;;;;;9179416;19;20695;-68
2022/07/19 12:46:14;;;;;;;2.67;1.38;;;39.60;34.20;;;;;;9182188;19;20018;-69
2022/07/19 12:49:21;;;;;;;5.28;1.05;;;39.60;34.00;;;;;;9181643;19;20026;-68
2022/07/19 12:52:27;;;;;;;6.53;1.48;;;39.60;33.70;;;;;;9180201;19;20028;-69
2022/07/19 12:55:33;;;;;;;8.48;1.27;;;39.60;33.60;;;;;;9179388;19;20011;-68
2022/07/19 13:01:56;;;;;;;2.65;1.42;;;39.70;33.80;;;;;;9181539;19;20360;-68
2022/07/19 13:05:04;;;;;;;3.85;1.40;;;39.70;33.70;;;;;;9173460;19;20017;-67
2022/07/19 13:08:12;;;;;;;4.28;1.38;;;39.70;33.60;;;;;;9177088;19;20123;-68
2022/07/19 13:11:18;;;;;;;2.03;1.25;;;39.70;33.50;;;;;;9181401;19;20045;-69
2022/07/19 13:14:23;;;;;;;6.15;1.40;;;39.80;33.50;;;;;;9178217;19;20018;-67
2022/07/19 13:17:28;;;;;;;8.57;1.30;;;39.80;33.40;;;;;;9176743;19;20391;-68
2022/07/19 13:20:36;;;;;;;8.15;1.40;;;39.80;33.30;;;;;;9178659;19;20014;-68
2022/07/19 13:23:41;;;;;;;10.93;1.58;;;39.80;33.10;;;;;;9177511;19;20019;-68
2022/07/19 13:26:46;;;;;;;3.95;1.60;;;39.80;33.10;;;;;;9178488;19;20531;-67
2022/07/19 13:29:51;;;;;;;3.85;1.55;;;39.80;33.20;;;;;;9180963;19;20019;-69
2022/07/19 13:32:57;;;;;;;5.15;1.90;;;39.80;33.30;;;;;;9179592;19;20353;-68
2022/07/19 13:36:07;;;;;;;4.32;1.52;;;39.80;33.30;;;;;;9175327;19;20022;-68
2022/07/19 13:39:12;;;;;;;10.55;1.80;;;39.90;33.30;;;;;;9178264;19;20025;-67
2022/07/19 13:42:17;;;;;;;6.82;2.03;;;39.90;33.30;;;;;;9180286;19;20033;-68
2022/07/19 13:45:22;;;;;;;8.20;1.83;;;39.90;33.30;;;;;;9176418;19;20054;-68
2022/07/19 13:48:28;;;;;;;6.60;1.92;;;39.90;33.30;;;;;;9179783;19;20010;-67
2022/07/19 13:51:35;;;;;;;6.18;1.85;;;39.90;33.10;;;;;;9177656;19;20015;-68
2022/07/19 13:54:40;;;;;;;5.22;1.98;;;39.90;32.90;;;;;;9178789;19;20373;-68
2022/07/19 13:57:46;;;;;;;4.45;1.60;;;39.90;33.10;;;;;;9178883;19;20011;-69
2022/07/19 14:00:51;;;;;;;2.70;1.88;;;39.90;33.10;;;;;;9179169;19;20017;-72
2022/07/19 14:03:56;;;;;;;6.13;1.67;;;39.90;33.00;;;;;;9178054;19;20019;-72
2022/07/19 14:07:04;;;;;;;8.63;2.10;;;39.90;33.60;;;;;;9174699;19;20018;-71
2022/07/19 14:10:10;;;;;;;6.88;1.83;;;39.90;32.80;;;;;;9170843;19;20019;-70
2022/07/19 14:13:15;;;;;;;6.93;1.67;;;39.90;33.00;;;;;;9169631;19;20015;-71
2022/07/19 14:16:39;;;;;;;5.43;1.40;;;39.90;33.10;;;;;;9172905;19;20015;-70
2022/07/19 14:19:45;;;;;;;2.90;1.58;;;39.90;33.00;;;;;;9172459;19;20472;-69
2022/07/19 14:22:53;;;;;;;7.88;2.22;;;39.90;33.00;;;;;;9169609;19;20015;-72
2022/07/19 14:25:59;;;;;;;7.20;2.10;;;39.90;33.00;;;;;;9168502;19;20029;-70
2022/07/19 14:29:06;;;;;;;11.23;2.80;;;39.80;32.90;;;;;;9170983;19;20118;-71
2022/07/19 14:32:11;;;;;;;10.57;1.98;;;39.80;32.90;;;;;;9170016;19;20025;-71
2022/07/19 14:35:17;;;;;;;9.15;1.98;;;39.80;32.80;;;;;;9169491;19;20022;-69
2022/07/19 14:38:25;;;;;;;8.75;2.15;;;39.80;32.70;;;;;;9169929;19;20022;-69
2022/07/19 14:41:30;;;;;;;7.30;2.00;;;39.80;32.60;;;;;;9170845;19;20026;-68
2022/07/19 14:44:35;;;;;;;7.65;1.70;;;39.80;32.70;;;;;;9169248;19;20022;-69
2022/07/19 14:47:41;;;;;;;8.02;1.58;;;39.80;32.60;;;;;;9174652;19;20086;-69
2022/07/19 14:50:46;;;;;;;3.60;1.60;;;39.80;32.50;;;;;;9178673;19;20026;-68
2022/07/19 14:53:53;;;;;;;9.88;2.17;;;39.70;32.40;;;;;;9176789;19;20011;-72
2022/07/19 14:56:58;;;;;;;7.88;1.92;;;39.80;32.40;;;;;;9179579;19;20014;-70
2022/07/19 15:00:04;;;;;;;5.05;2.00;;;39.70;32.30;;;;;;9180662;19;20026;-70
2022/07/19 15:03:10;;;;;;;9.45;2.30;;;39.70;32.20;;;;;;9180567;19;20025;-69
2022/07/19 15:06:15;;;;;;;8.18;1.88;;;39.70;32.20;;;;;;9171450;19;20350;-69
2022/07/19 15:09:23;;;;;;;10.55;1.85;;;39.70;32.90;;;;;;9174553;19;20026;-69
2022/07/19 15:12:58;;;;;;;5.07;1.95;;;39.60;32.00;;;;;;9176772;19;20018;-69
2022/07/19 15:16:29;;;;;;;9.32;2.38;;;39.60;31.90;;;;;;9177881;19;20015;-68
2022/07/19 15:19:34;;;;;;;10.68;1.83;;;39.50;32.10;;;;;;9176505;19;20014;-69
2022/07/19 15:22:40;;;;;;;8.50;2.58;;;39.50;32.20;;;;;;9177435;19;20033;-70
2022/07/19 15:26:20;;;;;;;11.68;2.08;;;39.50;32.20;;;;;;9175677;19;20022;-70
2022/07/19 15:29:25;;;;;;;7.32;2.35;;;39.40;32.20;;;;;;9176019;19;20081;-71
2022/07/19 15:32:30;;;;;;;5.38;1.95;;;39.40;32.30;;;;;;9172206;19;20022;-70
2022/07/19 15:36:05;;;;;;;6.50;1.98;;;39.40;32.20;;;;;;9174713;19;20482;-71
2022/07/19 15:40:13;;;;;;;8.70;2.10;;;39.40;32.20;;;;;;9174885;19;20023;-68
2022/07/19 15:44:21;;;;;;;4.15;1.80;;;39.40;32.30;;;;;;9174662;19;20019;-69
2022/07/19 15:48:28;;;;;;;7.95;2.03;;;39.30;32.20;;;;;;9172995;19;20026;-70
2022/07/19 15:52:36;;;;;;;5.80;1.95;;;39.30;32.10;;;;;;9172005;19;20664;-69
2022/07/19 15:56:43;;;;;;;7.18;1.83;;;39.20;32.10;;;;;;9174649;19;20580;-70
2022/07/19 16:00:51;;;;;;;9.05;1.75;;;39.20;32.10;;;;;;9171539;19;20832;-68
2022/07/19 16:04:59;;;;;;;8.43;2.20;;;39.10;32.10;;;;;;9167078;19;20019;-68
2022/07/19 16:09:07;;;;;;;7.28;1.77;;;39.00;32.20;;;;;;9170951;19;20078;-68
2022/07/19 16:13:15;;;;;;;12.07;2.20;;;39.00;32.10;;;;;;9168897;19;20026;-66
2022/07/19 16:17:23;;;;;;;11.05;2.03;;;38.90;32.20;;;;;;9171174;19;20014;-68
2022/07/19 16:21:30;;;;;;;7.50;2.20;;;38.90;32.30;;;;;;9170091;19;20022;-68
2022/07/19 16:25:11;;;;;;;5.50;2.55;;;38.80;32.20;;;;;;9174517;19;20030;-67